createdAt,value
2019-06-15T00:00:33.356Z,0
2019-06-15T00:03:28.924Z,0
2019-06-15T00:06:28.478Z,0
2019-06-15T00:09:28.048Z,0
2019-06-15T00:12:28.554Z,0
2019-06-15T00:15:28.693Z,0
2019-06-15T00:18:28.561Z,0
2019-06-15T00:21:28.217Z,0
2019-06-15T00:24:35.418Z,0
2019-06-15T00:27:28.443Z,0
2019-06-15T00:30:29.358Z,0
2019-06-15T00:33:29.085Z,0
2019-06-15T00:36:28.693Z,0
2019-06-15T00:39:33.496Z,0
2019-06-15T00:42:28.208Z,0
2019-06-15T00:45:29.000Z,0
2019-06-15T00:48:28.541Z,0
2019-06-15T00:51:28.206Z,0
2019-06-15T00:54:29.710Z,0
2019-06-15T00:57:33.823Z,0
2019-06-15T01:00:28.573Z,0
2019-06-15T01:03:28.212Z,0
2019-06-15T01:06:28.702Z,0
2019-06-15T01:09:28.352Z,0
2019-06-15T01:12:34.152Z,0
2019-06-15T01:15:28.849Z,0
2019-06-15T01:18:28.455Z,0
2019-06-15T01:21:34.133Z,0
2019-06-15T01:24:28.791Z,0
2019-06-15T01:27:28.411Z,0
2019-06-15T01:30:28.983Z,0
2019-06-15T01:33:28.820Z,0
2019-06-15T01:36:28.246Z,0
2019-06-15T01:39:34.239Z,0
2019-06-15T01:42:28.713Z,0
2019-06-15T01:45:29.267Z,0
2019-06-15T01:48:29.741Z,0
2019-06-15T01:51:33.659Z,0
2019-06-15T01:54:28.633Z,0
2019-06-15T01:57:33.433Z,0
2019-06-15T02:00:32.258Z,0
2019-06-15T02:03:28.733Z,0
2019-06-15T02:06:30.159Z,0
2019-06-15T02:09:28.829Z,0
2019-06-15T02:12:33.781Z,0
2019-06-15T02:15:28.629Z,0
2019-06-15T02:18:28.687Z,0
2019-06-15T02:21:28.395Z,0
2019-06-15T02:24:29.214Z,0
2019-06-15T02:27:28.860Z,0
2019-06-15T02:30:38.028Z,0
2019-06-15T02:33:28.897Z,0
2019-06-15T02:36:29.062Z,0
2019-06-15T02:39:29.285Z,0
2019-06-15T02:42:34.447Z,0
2019-06-15T02:45:29.255Z,0
2019-06-15T02:48:28.760Z,0
2019-06-15T02:51:28.873Z,0
2019-06-15T02:54:28.543Z,0
2019-06-15T02:57:28.283Z,0
2019-06-15T03:00:40.258Z,0
2019-06-15T03:03:28.991Z,0
2019-06-15T03:06:29.118Z,0
2019-06-15T03:09:29.575Z,0
2019-06-15T03:12:28.255Z,0
2019-06-15T03:15:29.197Z,0
2019-06-15T03:18:29.097Z,0
2019-06-15T03:21:28.789Z,1
2019-06-15T03:24:28.472Z,1
2019-06-15T03:27:29.419Z,0
2019-06-15T03:30:29.112Z,0
2019-06-15T03:33:29.278Z,0
2019-06-15T03:36:28.425Z,3
2019-06-15T03:39:33.517Z,4
2019-06-15T03:42:28.909Z,0
2019-06-15T03:45:28.768Z,0
2019-06-15T03:48:28.529Z,0
2019-06-15T03:51:33.394Z,0
2019-06-15T03:54:29.415Z,9
2019-06-15T03:57:29.297Z,0
2019-06-15T04:00:43.409Z,0
2019-06-15T04:03:28.302Z,3
2019-06-15T04:06:29.117Z,18
2019-06-15T04:09:28.605Z,21
2019-06-15T04:12:28.368Z,24
2019-06-15T04:15:28.923Z,16
2019-06-15T04:18:28.526Z,30
2019-06-15T04:21:28.706Z,33
2019-06-15T04:24:28.293Z,36
2019-06-15T04:27:28.414Z,29
2019-06-15T04:30:29.147Z,44
2019-06-15T04:33:29.244Z,37
2019-06-15T04:36:30.184Z,47
2019-06-15T04:39:28.695Z,61
2019-06-15T04:42:28.731Z,87
2019-06-15T04:45:28.915Z,101
2019-06-15T04:48:34.801Z,106
2019-06-15T04:51:29.155Z,125
2019-06-15T04:54:28.886Z,120
2019-06-15T04:57:28.989Z,123
2019-06-15T05:00:29.750Z,113
2019-06-15T05:03:33.637Z,109
2019-06-15T05:06:34.706Z,98
2019-06-15T05:09:28.557Z,153
2019-06-15T05:12:28.691Z,160
2019-06-15T05:15:28.469Z,67
2019-06-15T05:18:28.435Z,47
2019-06-15T05:21:28.256Z,52
2019-06-15T05:24:28.945Z,39
2019-06-15T05:27:33.813Z,54
2019-06-15T05:30:33.931Z,56
2019-06-15T05:33:38.885Z,46
2019-06-15T05:36:39.204Z,50
2019-06-15T05:39:34.446Z,53
2019-06-15T05:42:28.531Z,67
2019-06-15T05:45:28.430Z,72
2019-06-15T05:48:29.457Z,86
2019-06-15T05:51:28.339Z,118
2019-06-15T05:54:34.632Z,248
2019-06-15T05:57:35.209Z,428
2019-06-15T06:00:39.153Z,413
2019-06-15T06:03:28.901Z,0
2019-06-15T06:06:28.675Z,368
2019-06-15T06:09:28.553Z,0
2019-06-15T06:12:28.395Z,121
2019-06-15T06:15:29.464Z,157
2019-06-15T06:18:28.427Z,107
2019-06-15T06:21:28.737Z,12
2019-06-15T06:24:28.455Z,0
2019-06-15T06:27:36.589Z,5
2019-06-15T06:30:30.555Z,188
2019-06-15T06:33:29.361Z,487
2019-06-15T06:36:29.424Z,494
2019-06-15T06:39:30.012Z,0
2019-06-15T06:42:30.001Z,0
2019-06-15T06:45:30.842Z,0
2019-06-15T06:48:29.854Z,0
2019-06-15T06:51:29.899Z,0
2019-06-15T06:54:30.426Z,0
2019-06-15T06:57:29.645Z,0
2019-06-15T07:00:29.632Z,0
2019-06-15T07:03:29.561Z,0
2019-06-15T07:06:29.589Z,0
2019-06-15T07:09:29.817Z,0
2019-06-15T07:12:30.228Z,0
2019-06-15T07:15:29.345Z,0
2019-06-15T07:18:29.478Z,0
2019-06-15T07:21:29.774Z,209
2019-06-15T07:24:34.713Z,27
2019-06-15T07:27:29.560Z,0
2019-06-15T07:30:29.797Z,0
2019-06-15T07:33:39.850Z,0
2019-06-15T07:36:30.902Z,0
2019-06-15T07:39:29.832Z,258
2019-06-15T07:42:29.948Z,0
2019-06-15T07:45:30.475Z,0
2019-06-15T07:48:29.491Z,324
2019-06-15T07:51:34.458Z,164
2019-06-15T07:54:29.525Z,177
2019-06-15T07:57:29.720Z,0
2019-06-15T08:00:34.476Z,405
2019-06-15T08:03:29.233Z,0
2019-06-15T08:06:29.146Z,0
2019-06-15T08:09:29.220Z,217
2019-06-15T08:12:30.127Z,379
2019-06-15T08:15:29.418Z,284
2019-06-15T08:18:29.272Z,431
2019-06-15T08:21:30.647Z,118
2019-06-15T08:24:34.513Z,578
2019-06-15T08:27:29.637Z,0
2019-06-15T08:30:49.977Z,359
2019-06-15T08:33:30.104Z,0
2019-06-15T08:36:34.082Z,206
2019-06-15T08:39:29.928Z,0
2019-06-15T08:42:30.210Z,366
2019-06-15T08:45:29.136Z,190
2019-06-15T08:48:29.410Z,0
2019-06-15T08:51:29.401Z,0
2019-06-15T08:54:29.732Z,0
2019-06-15T08:57:34.670Z,0
2019-06-15T09:00:40.098Z,581
2019-06-15T09:03:29.502Z,256
2019-06-15T09:06:29.565Z,428
2019-06-15T09:09:34.719Z,485
2019-06-15T09:12:30.017Z,439
2019-06-15T09:15:42.724Z,483
2019-06-15T09:18:29.865Z,193
2019-06-15T09:21:30.129Z,161
2019-06-15T09:24:29.145Z,511
2019-06-15T09:27:34.144Z,428
2019-06-15T09:30:29.280Z,321
2019-06-15T09:33:29.589Z,256
2019-06-15T09:36:35.114Z,232
2019-06-15T09:39:34.308Z,134
2019-06-15T09:42:29.073Z,205
2019-06-15T09:45:32.768Z,181
2019-06-15T09:48:28.985Z,74
2019-06-15T09:51:29.048Z,102
2019-06-15T09:54:29.070Z,167
2019-06-15T09:57:29.011Z,172
2019-06-15T10:00:29.040Z,185
2019-06-15T10:03:29.562Z,247
2019-06-15T10:06:28.746Z,125
2019-06-15T10:09:28.912Z,111
2019-06-15T10:12:29.635Z,392
2019-06-15T10:15:39.129Z,214
2019-06-15T10:18:39.070Z,128
2019-06-15T10:21:29.334Z,168
2019-06-15T10:24:28.991Z,193
2019-06-15T10:27:29.582Z,495
2019-06-15T10:30:29.451Z,222
2019-06-15T10:33:30.320Z,237
2019-06-15T10:36:29.056Z,271
2019-06-15T10:39:29.169Z,494
2019-06-15T10:42:34.252Z,441
2019-06-15T10:45:29.605Z,262
2019-06-15T10:48:34.687Z,158
2019-06-15T10:51:29.467Z,304
2019-06-15T10:54:29.290Z,205
2019-06-15T10:57:29.177Z,258
2019-06-15T11:00:29.912Z,247
2019-06-15T11:03:29.897Z,231
2019-06-15T11:06:29.949Z,328
2019-06-15T11:09:29.979Z,245
2019-06-15T11:12:45.127Z,192
2019-06-15T11:15:29.867Z,210
2019-06-15T11:18:30.281Z,285
2019-06-15T11:21:29.167Z,296
2019-06-15T11:24:29.242Z,186
2019-06-15T11:27:29.351Z,169
2019-06-15T11:30:29.360Z,226
2019-06-15T11:33:40.367Z,226
2019-06-15T11:36:29.318Z,218
2019-06-15T11:39:29.240Z,252
2019-06-15T11:42:29.298Z,295
2019-06-15T11:45:29.263Z,292
2019-06-15T11:48:29.256Z,317
2019-06-15T11:51:34.286Z,230
2019-06-15T11:54:29.231Z,180
2019-06-15T11:57:29.085Z,163
2019-06-15T12:00:45.309Z,189
2019-06-15T12:03:29.294Z,138
2019-06-15T12:06:29.300Z,165
2019-06-15T12:09:29.345Z,133
2019-06-15T12:12:29.441Z,140
2019-06-15T12:15:29.214Z,151
2019-06-15T12:18:29.591Z,143
2019-06-15T12:21:29.253Z,136
2019-06-15T12:24:29.199Z,108
2019-06-15T12:27:28.932Z,112
2019-06-15T12:30:46.539Z,110
2019-06-15T12:33:28.855Z,120
2019-06-15T12:36:33.278Z,122
2019-06-15T12:39:28.570Z,121
2019-06-15T12:42:28.935Z,109
2019-06-15T12:45:28.998Z,117
2019-06-15T12:48:29.374Z,100
2019-06-15T12:51:29.116Z,106
2019-06-15T12:54:29.318Z,95
2019-06-15T12:57:29.321Z,96
2019-06-15T13:00:38.233Z,106
2019-06-15T13:03:29.356Z,109
2019-06-15T13:06:38.974Z,93
2019-06-15T13:09:29.261Z,102
2019-06-15T13:12:29.379Z,106
2019-06-15T13:15:29.565Z,109
2019-06-15T13:18:28.711Z,129
2019-06-15T13:21:29.930Z,109
2019-06-15T13:24:28.967Z,96
2019-06-15T13:27:29.093Z,82
2019-06-15T13:30:28.878Z,105
2019-06-15T13:33:29.125Z,103
2019-06-15T13:36:28.881Z,117
2019-06-15T13:39:29.083Z,81
2019-06-15T13:42:28.907Z,121
2019-06-15T13:45:39.135Z,114
2019-06-15T13:48:28.916Z,111
2019-06-15T13:51:28.983Z,104
2019-06-15T13:54:29.035Z,134
2019-06-15T13:57:29.075Z,93
2019-06-15T14:00:31.987Z,98
2019-06-15T14:03:28.874Z,138
2019-06-15T14:06:30.410Z,117
2019-06-15T14:09:29.188Z,71
2019-06-15T14:12:28.993Z,74
2019-06-15T14:15:29.376Z,101
2019-06-15T14:18:28.542Z,128
2019-06-15T14:21:29.789Z,107
2019-06-15T14:24:29.864Z,105
2019-06-15T14:27:29.104Z,101
2019-06-15T14:30:29.185Z,101
2019-06-15T14:33:28.787Z,82
2019-06-15T14:36:29.246Z,89
2019-06-15T14:39:29.084Z,92
2019-06-15T14:42:29.066Z,80
2019-06-15T14:45:29.135Z,102
2019-06-15T14:48:29.071Z,66
2019-06-15T14:51:29.056Z,91
2019-06-15T14:54:29.503Z,95
2019-06-15T14:57:36.108Z,91
2019-06-15T15:00:30.166Z,100
2019-06-15T15:03:31.323Z,95
2019-06-15T15:06:30.573Z,91
2019-06-15T15:09:30.535Z,88
2019-06-15T15:12:29.512Z,77
2019-06-15T15:15:30.482Z,66
2019-06-15T15:18:29.606Z,68
2019-06-15T15:21:29.977Z,55
2019-06-15T15:24:30.161Z,67
2019-06-15T15:27:29.048Z,76
2019-06-15T15:30:41.706Z,61
2019-06-15T15:33:28.752Z,69
2019-06-15T15:36:30.379Z,66
2019-06-15T15:39:30.160Z,53
2019-06-15T15:42:30.298Z,52
2019-06-15T15:45:29.128Z,61
2019-06-15T15:48:36.258Z,48
2019-06-15T15:51:30.710Z,58
2019-06-15T15:54:28.838Z,55
2019-06-15T15:57:30.564Z,54
2019-06-15T16:00:34.308Z,40
2019-06-15T16:03:29.341Z,52
2019-06-15T16:06:29.192Z,43
2019-06-15T16:09:30.251Z,46
2019-06-15T16:12:29.290Z,58
2019-06-15T16:15:29.267Z,56
2019-06-15T16:18:30.648Z,43
2019-06-15T16:21:30.257Z,57
2019-06-15T16:24:30.060Z,43
2019-06-15T16:27:29.349Z,53
2019-06-15T16:30:59.863Z,37
2019-06-15T16:33:29.468Z,38
2019-06-15T16:36:30.406Z,57
2019-06-15T16:39:30.398Z,50
2019-06-15T16:42:29.073Z,45
2019-06-15T16:45:29.560Z,51
2019-06-15T16:48:30.287Z,36
2019-06-15T16:51:30.256Z,43
2019-06-15T16:54:29.889Z,29
2019-06-15T16:57:29.560Z,40
2019-06-15T17:00:36.318Z,27
2019-06-15T17:03:38.537Z,28
2019-06-15T17:06:28.699Z,27
2019-06-15T17:09:30.367Z,39
2019-06-15T17:12:37.251Z,27
2019-06-15T17:15:30.394Z,37
2019-06-15T17:18:33.362Z,35
2019-06-15T17:21:30.396Z,24
2019-06-15T17:24:30.451Z,22
2019-06-15T17:27:31.801Z,19
2019-06-15T17:30:30.568Z,28
2019-06-15T17:33:38.200Z,26
2019-06-15T17:36:28.825Z,12
2019-06-15T17:39:30.551Z,23
2019-06-15T17:42:31.708Z,12
2019-06-15T17:45:29.484Z,21
2019-06-15T17:48:37.074Z,10
2019-06-15T17:51:31.104Z,21
2019-06-15T17:54:31.106Z,9
2019-06-15T17:57:29.072Z,21
2019-06-15T18:00:57.489Z,20
2019-06-15T18:03:30.850Z,19
2019-06-15T18:06:36.062Z,6
2019-06-15T18:09:32.331Z,17
2019-06-15T18:12:34.700Z,5
2019-06-15T18:15:47.211Z,6
2019-06-15T18:18:37.076Z,16
2019-06-15T18:21:46.615Z,17
2019-06-15T18:24:38.823Z,18
2019-06-15T18:27:30.355Z,19
2019-06-15T18:30:46.450Z,20
2019-06-15T18:33:40.751Z,19
2019-06-15T18:36:36.580Z,18
2019-06-15T18:39:29.983Z,17
2019-06-15T18:42:39.317Z,17
2019-06-15T18:45:39.349Z,16
2019-06-15T18:48:30.397Z,15
2019-06-15T18:51:29.941Z,3
2019-06-15T18:54:29.307Z,13
2019-06-15T18:57:37.196Z,11
2019-06-15T19:00:37.096Z,0
2019-06-15T19:03:46.694Z,0
2019-06-15T19:06:30.267Z,0
2019-06-15T19:09:30.053Z,0
2019-06-15T19:12:35.169Z,7
2019-06-15T19:15:37.323Z,6
2019-06-15T19:18:31.211Z,0
2019-06-15T19:21:30.442Z,0
2019-06-15T19:24:37.025Z,4
2019-06-15T19:27:29.516Z,3
2019-06-15T19:30:28.990Z,2
2019-06-15T19:33:29.169Z,2
2019-06-15T19:36:36.479Z,0
2019-06-15T19:39:29.868Z,0
2019-06-15T19:42:36.476Z,0
2019-06-15T19:45:38.530Z,0
2019-06-15T19:48:30.766Z,0
2019-06-15T19:51:29.755Z,0
2019-06-15T19:54:29.331Z,0
2019-06-15T19:57:36.124Z,0
2019-06-15T20:00:30.515Z,0
2019-06-15T20:03:36.274Z,0
2019-06-15T20:06:30.377Z,0
2019-06-15T20:09:30.215Z,0
2019-06-15T20:12:37.334Z,0
2019-06-15T20:15:37.695Z,0
2019-06-15T20:18:42.876Z,0
2019-06-15T20:21:37.325Z,0
2019-06-15T20:25:16.438Z,0
2019-06-15T20:27:46.674Z,0
2019-06-15T20:30:40.693Z,0
2019-06-15T20:33:39.608Z,0
2019-06-15T20:36:29.357Z,0
2019-06-15T20:39:40.191Z,0
2019-06-15T20:42:49.094Z,0
2019-06-15T20:45:46.717Z,0
2019-06-15T20:48:29.572Z,0
2019-06-15T20:51:31.429Z,0
2019-06-15T20:54:30.236Z,0
2019-06-15T20:57:36.016Z,0
2019-06-15T21:00:30.307Z,0
2019-06-15T21:03:29.480Z,0
2019-06-15T21:06:30.199Z,0
2019-06-15T21:09:31.937Z,0
2019-06-15T21:12:29.391Z,0
2019-06-15T21:15:37.011Z,0
2019-06-15T21:18:29.268Z,0
2019-06-15T21:21:29.291Z,0
2019-06-15T21:24:30.277Z,0
2019-06-15T21:27:36.664Z,0
2019-06-15T21:30:29.958Z,0
2019-06-15T21:33:30.076Z,0
2019-06-15T21:36:29.158Z,0
2019-06-15T21:39:39.135Z,0
2019-06-15T21:42:29.182Z,0
2019-06-15T21:45:29.051Z,0
2019-06-15T21:48:36.367Z,0
2019-06-15T21:51:29.838Z,0
2019-06-15T21:54:29.237Z,0
2019-06-15T21:57:30.340Z,0
2019-06-15T22:01:06.257Z,0
2019-06-15T22:03:30.489Z,0
2019-06-15T22:06:30.422Z,0
2019-06-15T22:09:36.311Z,0
2019-06-15T22:12:29.646Z,0
2019-06-15T22:15:29.547Z,0
2019-06-15T22:18:29.806Z,0
2019-06-15T22:21:36.653Z,0
2019-06-15T22:24:29.550Z,0
2019-06-15T22:27:30.366Z,0
2019-06-15T22:30:30.536Z,0
2019-06-15T22:33:36.235Z,0
2019-06-15T22:36:38.614Z,0
2019-06-15T22:39:30.480Z,0
2019-06-15T22:42:30.097Z,0
2019-06-15T22:45:30.652Z,0
2019-06-15T22:48:29.829Z,0
2019-06-15T22:51:30.211Z,0
2019-06-15T22:54:29.994Z,0
2019-06-15T22:57:29.915Z,0
2019-06-15T23:00:33.223Z,0
2019-06-15T23:03:30.152Z,0
2019-06-15T23:06:37.366Z,0
2019-06-15T23:09:29.986Z,0
2019-06-15T23:12:29.084Z,0
2019-06-15T23:15:33.719Z,0
2019-06-15T23:18:30.638Z,0
2019-06-15T23:21:30.856Z,0
2019-06-15T23:24:29.928Z,0
2019-06-15T23:27:29.783Z,0
2019-06-15T23:30:29.482Z,0
2019-06-15T23:33:30.592Z,0
2019-06-15T23:36:52.026Z,0
2019-06-15T23:39:29.690Z,0
2019-06-15T23:42:29.812Z,0
2019-06-15T23:45:29.508Z,0
2019-06-15T23:48:36.319Z,0
2019-06-15T23:51:31.365Z,0
2019-06-15T23:54:29.298Z,0
2019-06-15T23:57:36.782Z,0
